VRMM/MLE METAR and TAF weather

Enter ICAO airport designator
Station Type Date Time Source
VRMM METAR 2022/01/29 10:00 UTC NOAA

VRMM 291000Z 13012KT 9999 FEW019 SCT280 32/24 Q1008 NOSIG


Station Type Date Time Source
VRMM Decoded METAR 2022/01/29 10:00 UTC NOAA

Male, Maldives (VRMM) 04-12N 073-32E 2M
Jan 29, 2022 - 05:00 AM EST / 2022.01.29 1000 UTC
Wind: from the SE (130 degrees) at 14 MPH (12 KT):0
Visibility: greater than 7 mile(s):0
Sky conditions: partly cloudy
Temperature: 89 F (32 C)
Heat index: 98.4 F (36.9 C):1
Dew Point: 75 F (24 C)
Relative Humidity: 62%
Pressure (altimeter): 29.77 in. Hg (1008 hPa)
ob: VRMM 291000Z 13012KT 9999 FEW019 SCT280 32/24 Q1008 NOSIG
cycle: 10

Station Type Date Time Source
VRMM TAF 2022/01/29 06:09 UTC NOAA

TAF VRMM 290500Z 2906/3012 12010KT 9999 FEW018TCU
TEMPO 2906/2912 FEW018CB

Example: see airport list